Terminal Aerodrome Forecast
Issued by NWS Springfield, MO

Home | Current Version | Previous Version | Text Only | Print | Product List | Glossary On
Versions: 1 2 3 4 5 6 7 8 9 10 11 12 13 14 15
000
FTUS43 KSGF 231900 AAA
TAFSGF
TAF AMD
KSGF 231925Z 2319/2418 01009KT P6SM VCSH SCT025 BKN050
      TEMPO 2319/2321 26012G22KT 5SM SHRA BR BKN025
     FM232100 02011KT P6SM FEW020 SCT250
     FM240000 03006KT P6SM SKC
     FM240600 05006KT 5SM BR SKC
     FM241400 09008KT P6SM SKC=

USA.gov is the U.S. government's official web portal to all federal, state and local government web resources and services.